Terminal Aerodrome Forecast
Issued by NWS El Paso, TX

Home | Current Version | Previous Version | Text Only | Print | Product List | Glossary On
Versions: 1 2 3 4 5 6 7 8 9 10 11 12 13
909
FTUS44 KEPZ 250127 AAA
TAFELP
TAF AMD
KELP 250127Z 2501/2524 19006KT P6SM VCTS FEW110CB SCT140 SCT250
      TEMPO 2501/2503 VRB30G35KT 6SM -TSRA SCT100CB BKN140 BKN250
     FM250400 14008KT P6SM FEW150 SCT250
     FM251200 05005KT P6SM SKC
     FM252000 09007KT P6SM FEW100 SCT140=

USA.gov is the U.S. government's official web portal to all federal, state and local government web resources and services.